Time;durP1;ratioP1;P1;durP2;ratioP2;P2;SDS_P1;SDS_P2;PMS_P1;PMS_P2;Temp;Humidity;BMP_temperature;BMP_pressure;BME280_temperature;BME280_humidity;BME280_pressure;Samples;Min_cycle;Max_cycle;Signal;HPM_P1;HPM_P2
2021/09/17 00:01:55;;;;;;;3.55;1.70;;;;;;;21.72;64.90;100226.97;5085577;28;20023;-59
2021/09/17 00:04:21;;;;;;;3.10;2.00;;;;;;;21.70;64.94;100231.91;5095858;28;20398;-58
2021/09/17 00:06:46;;;;;;;5.20;1.98;;;;;;;21.72;65.03;100236.03;5094231;28;20028;-61
2021/09/17 00:09:12;;;;;;;3.13;2.28;;;;;;;21.72;65.10;100244.25;5089374;28;20028;-59
2021/09/17 00:11:38;;;;;;;4.00;1.65;;;;;;;21.71;64.84;100253.53;5097510;28;20421;-59
2021/09/17 00:14:04;;;;;;;4.93;1.95;;;;;;;21.72;65.11;100254.34;5093131;28;20161;-60
2021/09/17 00:16:29;;;;;;;5.22;1.88;;;;;;;21.72;64.98;100268.03;5090880;28;20056;-60
2021/09/17 00:18:55;;;;;;;2.58;1.77;;;;;;;21.72;65.21;100260.66;5087529;28;20482;-60
2021/09/17 00:21:20;;;;;;;3.30;1.70;;;;;;;21.72;65.03;100255.19;5095093;28;20028;-60
2021/09/17 00:23:46;;;;;;;2.38;1.70;;;;;;;21.72;65.09;100257.06;5085484;28;20016;-58
2021/09/17 00:26:12;;;;;;;3.10;1.70;;;;;;;21.72;65.26;100257.06;5091583;28;20095;-60
2021/09/17 00:28:37;;;;;;;2.00;1.70;;;;;;;21.71;64.88;100252.69;5085887;28;20486;-60
2021/09/17 00:31:03;;;;;;;3.22;1.52;;;;;;;21.71;65.34;100264.47;5080903;28;20506;-60
2021/09/17 00:33:30;;;;;;;4.95;1.90;;;;;;;21.71;65.19;100267.19;5085205;28;20126;-60
2021/09/17 00:35:56;;;;;;;2.70;1.80;;;;;;;21.71;64.87;100259.00;5094433;28;20027;-60
2021/09/17 00:38:21;;;;;;;2.30;1.50;;;;;;;21.71;65.05;100253.53;5084261;28;20084;-60
2021/09/17 00:40:47;;;;;;;3.72;2.00;;;;;;;21.72;64.90;100257.06;5081374;28;20032;-59
2021/09/17 00:43:12;;;;;;;2.90;1.63;;;;;;;21.71;64.99;100244.50;5078594;28;20391;-60
2021/09/17 00:45:38;;;;;;;2.38;1.52;;;;;;;21.71;65.17;100237.09;5083225;28;20032;-62
2021/09/17 00:48:04;;;;;;;4.30;1.83;;;;;;;21.69;65.22;100239.28;5080635;28;20023;-61
2021/09/17 00:50:30;;;;;;;3.42;1.80;;;;;;;21.71;65.27;100230.81;5080415;28;20025;-57
2021/09/17 00:52:56;;;;;;;3.67;1.75;;;;;;;21.70;65.35;100231.91;5079236;28;20073;-58
2021/09/17 00:55:22;;;;;;;3.40;1.75;;;;;;;21.70;65.24;100220.97;5079042;28;20036;-59
2021/09/17 00:57:48;;;;;;;3.85;2.15;;;;;;;21.68;65.35;100213.00;5079905;28;20024;-60
2021/09/17 01:00:14;;;;;;;3.80;2.15;;;;;;;21.70;65.15;100215.50;5091676;28;20019;-58
2021/09/17 01:02:41;;;;;;;2.75;1.65;;;;;;;21.69;65.56;100203.69;5097214;28;20130;-57
2021/09/17 01:05:08;;;;;;;2.47;1.60;;;;;;;21.67;65.50;100194.09;5087467;27;20050;-57
2021/09/17 01:07:34;;;;;;;3.05;1.50;;;;;;;21.70;65.55;100188.13;5094478;28;20024;-61
2021/09/17 01:10:00;;;;;;;3.47;1.80;;;;;;;21.70;65.56;100175.25;5082987;28;20072;-59
2021/09/17 01:12:26;;;;;;;3.45;1.48;;;;;;;21.69;65.53;100173.59;5093866;28;20020;-59
2021/09/17 01:14:52;;;;;;;1.73;1.50;;;;;;;21.68;65.56;100180.16;5092678;28;20020;-59
2021/09/17 01:17:19;;;;;;;4.05;1.75;;;;;;;21.69;65.62;100179.06;5085671;28;20024;-59
2021/09/17 01:19:45;;;;;;;3.40;1.73;;;;;;;21.69;65.40;100175.53;5087488;28;20554;-59
2021/09/17 01:22:11;;;;;;;5.95;2.17;;;;;;;21.69;65.69;100173.59;5085897;28;20049;-59
2021/09/17 01:24:39;;;;;;;7.80;2.45;;;;;;;21.69;65.61;100175.53;5079961;28;20024;-60
2021/09/17 01:27:06;;;;;;;11.68;2.58;;;;;;;21.68;65.67;100173.88;5079713;28;20035;-59
2021/09/17 01:29:32;;;;;;;11.10;2.83;;;;;;;21.68;65.35;100176.63;5080256;28;20026;-60
2021/09/17 01:31:57;;;;;;;11.32;3.53;;;;;;;21.68;65.51;100177.44;5080673;28;20027;-57
2021/09/17 01:34:24;;;;;;;7.47;2.80;;;;;;;21.68;65.54;100171.16;5086590;28;20024;-59
2021/09/17 01:36:51;;;;;;;8.90;2.60;;;;;;;21.69;65.83;100162.66;5090880;28;20435;-58
2021/09/17 01:39:18;;;;;;;8.35;2.05;;;;;;;21.68;65.84;100160.19;5082369;28;20024;-59
2021/09/17 01:41:44;;;;;;;8.43;2.30;;;;;;;21.68;65.63;100154.72;5084180;28;20035;-57
2021/09/17 01:44:10;;;;;;;10.38;2.38;;;;;;;21.66;65.60;100152.25;5087929;28;20055;-60
2021/09/17 01:46:36;;;;;;;8.52;2.15;;;;;;;21.68;65.75;100152.81;5086546;28;20513;-59
2021/09/17 01:49:02;;;;;;;8.18;2.17;;;;;;;21.68;65.67;100150.06;5089789;28;20024;-59
2021/09/17 01:51:27;;;;;;;7.18;2.22;;;;;;;21.69;65.49;100150.91;5093823;28;20471;-58
2021/09/17 01:53:53;;;;;;;8.23;2.25;;;;;;;21.68;65.83;100155.53;5096795;28;20047;-60
2021/09/17 01:56:23;;;;;;;7.88;2.30;;;;;;;21.69;65.61;100148.97;5080197;28;20069;-59
2021/09/17 01:58:50;;;;;;;7.07;2.03;;;;;;;21.67;65.71;100144.84;5081629;28;20032;-58
2021/09/17 02:01:16;;;;;;;8.15;2.17;;;;;;;21.67;65.69;100147.59;5083198;28;20031;-60
2021/09/17 02:03:42;;;;;;;6.40;2.10;;;;;;;21.68;65.55;100143.78;5081068;28;20036;-58
2021/09/17 02:06:07;;;;;;;7.25;2.05;;;;;;;21.68;65.70;100143.78;5083687;28;20024;-57
2021/09/17 02:08:33;;;;;;;9.40;2.42;;;;;;;21.67;66.04;100140.22;5078358;28;20051;-60
2021/09/17 02:10:59;;;;;;;10.88;2.50;;;;;;;21.68;65.63;100135.56;5084659;28;20436;-59
2021/09/17 02:13:24;;;;;;;9.70;2.38;;;;;;;21.67;65.62;100134.75;5079457;28;20483;-58
2021/09/17 02:15:52;;;;;;;8.40;2.20;;;;;;;21.68;65.68;100132.84;5076826;28;20025;-60
2021/09/17 02:18:18;;;;;;;8.50;2.42;;;;;;;21.67;65.72;100132.03;5081779;28;20022;-60
2021/09/17 02:20:44;;;;;;;6.82;2.55;;;;;;;21.68;65.57;100127.38;5077977;28;20032;-60
2021/09/17 02:23:10;;;;;;;7.03;2.30;;;;;;;21.67;65.75;100123.81;5080658;28;20024;-56
2021/09/17 02:25:36;;;;;;;7.63;2.15;;;;;;;21.68;65.63;100116.44;5082975;28;20482;-59
2021/09/17 02:28:02;;;;;;;6.28;2.08;;;;;;;21.67;66.05;100121.06;5084826;28;20106;-57
2021/09/17 02:30:28;;;;;;;7.07;2.30;;;;;;;21.68;66.04;100113.69;5079344;28;20053;-57
2021/09/17 02:32:54;;;;;;;7.50;2.55;;;;;;;21.67;66.17;100117.50;5086071;28;20032;-57
2021/09/17 02:35:20;;;;;;;9.60;1.90;;;;;;;21.65;65.98;100114.22;5086502;28;20020;-59
2021/09/17 02:37:45;;;;;;;9.13;2.03;;;;;;;21.68;65.84;100119.97;5082068;28;20066;-59
2021/09/17 02:40:13;;;;;;;8.10;1.83;;;;;;;21.67;65.88;100118.34;5082861;28;20054;-60
2021/09/17 02:42:39;;;;;;;5.78;2.00;;;;;;;21.69;65.82;100118.06;5084380;28;20019;-59
2021/09/17 02:45:06;;;;;;;5.78;1.90;;;;;;;21.67;66.18;100117.50;5077741;28;20024;-57
2021/09/17 02:47:31;;;;;;;4.78;1.80;;;;;;;21.68;66.09;100122.72;5078846;28;20032;-58
2021/09/17 02:49:57;;;;;;;6.28;1.90;;;;;;;21.68;65.83;100119.16;5084437;28;20019;-57
2021/09/17 02:52:24;;;;;;;10.05;3.10;;;;;;;21.67;66.08;100103.81;5084642;28;20490;-59
2021/09/17 02:54:50;;;;;;;7.18;1.98;;;;;;;21.67;66.20;100115.59;5080953;28;20029;-59
2021/09/17 02:57:16;;;;;;;4.35;1.48;;;;;;;21.67;65.93;100115.59;5082976;28;20028;-58
2021/09/17 02:59:42;;;;;;;6.75;3.25;;;;;;;21.68;65.93;100113.69;5092439;28;20031;-60
2021/09/17 03:02:08;;;;;;;8.43;1.77;;;;;;;21.67;65.88;100115.59;5078959;28;20031;-59
2021/09/17 03:04:33;;;;;;;6.72;2.03;;;;;;;21.65;65.83;100108.75;5095798;28;20024;-58
2021/09/17 03:06:59;;;;;;;7.40;1.70;;;;;;;21.65;66.12;100104.09;5094084;28;20062;-59
2021/09/17 03:09:26;;;;;;;7.95;1.85;;;;;;;21.68;65.90;100105.47;5097354;28;20026;-57
2021/09/17 03:11:51;;;;;;;6.03;1.92;;;;;;;21.67;66.32;100101.06;5091695;28;20020;-58
2021/09/17 03:14:17;;;;;;;6.68;1.77;;;;;;;21.68;66.35;100094.53;5093613;28;20389;-60
2021/09/17 03:16:43;;;;;;;5.55;1.83;;;;;;;21.66;66.35;100086.59;5089038;28;20562;-57
2021/09/17 03:19:08;;;;;;;3.63;1.30;;;;;;;21.66;65.96;100088.50;5099790;28;20481;-57
2021/09/17 03:21:34;;;;;;;2.88;1.38;;;;;;;21.65;65.95;100109.56;5088465;28;20028;-60
2021/09/17 03:24:00;;;;;;;5.00;1.75;;;;;;;21.67;66.26;100118.34;5102025;28;20024;-59
2021/09/17 03:26:25;;;;;;;7.35;2.20;;;;;;;21.67;66.13;100123.81;5090724;28;20499;-58
2021/09/17 03:28:52;;;;;;;4.93;1.60;;;;;;;21.67;66.49;100136.66;5092069;28;20080;-59
2021/09/17 03:31:18;;;;;;;5.05;1.42;;;;;;;21.66;66.17;100137.75;5089067;28;20024;-59
2021/09/17 03:33:44;;;;;;;7.40;1.88;;;;;;;21.66;66.25;100127.63;5096211;28;20057;-58
2021/09/17 03:36:10;;;;;;;4.47;1.70;;;;;;;21.66;66.39;100129.53;5081420;28;20028;-59
2021/09/17 03:38:35;;;;;;;5.40;1.48;;;;;;;21.66;66.26;100135.84;5082366;28;20398;-58
2021/09/17 03:41:02;;;;;;;7.55;1.88;;;;;;;21.67;66.21;100131.19;5097917;28;20077;-59
2021/09/17 03:43:28;;;;;;;4.68;1.80;;;;;;;21.66;66.17;100118.59;5092598;28;20020;-59
2021/09/17 03:45:53;;;;;;;5.88;1.85;;;;;;;21.66;66.01;100108.47;5089475;28;20039;-58
2021/09/17 03:48:19;;;;;;;8.95;1.80;;;;;;;21.66;65.79;100093.97;5096749;28;20027;-58
2021/09/17 03:50:45;;;;;;;4.70;1.67;;;;;;;21.66;65.83;100107.66;5095316;28;20028;-60
2021/09/17 03:53:11;;;;;;;6.00;2.10;;;;;;;21.65;65.91;100106.00;5101804;28;20050;-57
2021/09/17 03:55:38;;;;;;;6.05;1.42;;;;;;;21.65;66.04;100112.31;5090359;28;20024;-58
2021/09/17 03:58:04;;;;;;;6.38;1.83;;;;;;;21.64;66.13;100116.13;5099055;28;20026;-58
2021/09/17 04:00:31;;;;;;;5.22;1.98;;;;;;;21.65;66.02;100120.50;5076923;27;20032;-59
2021/09/17 04:02:56;;;;;;;4.40;1.70;;;;;;;21.66;65.73;100124.06;5089781;28;20538;-58
2021/09/17 04:05:22;;;;;;;7.18;1.60;;;;;;;21.65;65.81;100108.75;5087300;28;20103;-59
2021/09/17 04:07:48;;;;;;;6.72;1.70;;;;;;;21.64;65.85;100102.44;5086776;28;20043;-59
2021/09/17 04:10:15;;;;;;;8.80;1.70;;;;;;;21.65;65.56;100095.06;5093993;28;20024;-59
2021/09/17 04:12:41;;;;;;;9.25;3.10;;;;;;;21.65;65.88;100106.00;5083547;28;20085;-57
2021/09/17 04:15:08;;;;;;;7.85;2.00;;;;;;;21.66;65.88;100118.59;5094465;28;20020;-59
2021/09/17 04:17:34;;;;;;;7.15;1.80;;;;;;;21.65;65.68;100114.22;5076620;28;20055;-58
2021/09/17 04:20:00;;;;;;;6.57;1.55;;;;;;;21.65;65.67;100128.72;5099800;28;20051;-59
2021/09/17 04:22:25;;;;;;;4.05;1.60;;;;;;;21.65;65.91;100123.25;5087152;28;20053;-59
2021/09/17 04:24:53;;;;;;;10.93;1.73;;;;;;;21.65;65.37;100130.63;5094509;28;20056;-57
2021/09/17 04:27:21;;;;;;;6.30;3.08;;;;;;;21.65;65.56;100145.13;5080063;28;20682;-58
2021/09/17 04:29:48;;;;;;;5.80;1.92;;;;;;;21.65;65.53;100152.53;5088112;28;20032;-58
2021/09/17 04:32:14;;;;;;;6.25;1.75;;;;;;;21.65;65.71;100150.59;5093488;28;20027;-58
2021/09/17 04:34:39;;;;;;;8.00;1.70;;;;;;;21.65;65.88;100160.72;5089152;28;20040;-58
2021/09/17 04:37:05;;;;;;;9.95;1.60;;;;;;;21.65;65.63;100152.53;5087856;28;20020;-57
2021/09/17 04:39:31;;;;;;;7.57;1.65;;;;;;;21.65;65.75;100160.72;5080120;28;20475;-58
2021/09/17 04:41:56;;;;;;;5.18;1.67;;;;;;;21.64;65.93;100139.91;5087030;28;20036;-58
2021/09/17 04:44:22;;;;;;;9.02;2.00;;;;;;;21.64;65.80;100137.19;5100259;28;20478;-58
2021/09/17 04:46:47;;;;;;;8.68;2.35;;;;;;;21.64;65.33;100153.59;5087110;28;20036;-57
2021/09/17 04:49:13;;;;;;;8.40;1.80;;;;;;;21.65;65.71;100171.69;5090872;28;20035;-59
2021/09/17 04:51:39;;;;;;;9.50;1.98;;;;;;;21.64;65.34;100170.81;5087128;28;20024;-59
2021/09/17 04:54:04;;;;;;;8.30;1.88;;;;;;;21.64;65.43;100181.78;5103496;28;20027;-59
2021/09/17 04:56:30;;;;;;;7.90;2.00;;;;;;;21.63;65.53;100190.25;5095740;28;20033;-59
2021/09/17 04:58:55;;;;;;;7.97;1.98;;;;;;;21.65;65.31;100182.63;5091534;28;20031;-57
2021/09/17 05:01:21;;;;;;;4.13;1.55;;;;;;;21.62;65.40;100178.50;5080008;28;20100;-57
2021/09/17 05:03:50;;;;;;;8.65;2.22;;;;;;;21.63;65.67;100160.16;5081045;28;20031;-58
2021/09/17 05:06:15;;;;;;;5.00;1.80;;;;;;;21.62;65.55;100156.63;5088050;28;20108;-58
2021/09/17 05:08:41;;;;;;;3.38;1.63;;;;;;;21.61;65.68;100162.34;5096945;28;20397;-59
2021/09/17 05:11:06;;;;;;;5.10;1.75;;;;;;;21.62;65.75;100178.50;5085319;28;20041;-60
2021/09/17 05:13:32;;;;;;;4.82;1.83;;;;;;;21.62;65.38;100192.19;5097309;28;20019;-58
2021/09/17 05:15:58;;;;;;;6.72;1.85;;;;;;;21.63;65.78;100201.22;5092324;28;20130;-58
2021/09/17 05:18:23;;;;;;;5.68;1.70;;;;;;;21.61;65.79;100203.38;5084508;28;20066;-58
2021/09/17 05:20:49;;;;;;;5.35;1.70;;;;;;;21.61;65.64;100217.88;5088641;28;20085;-59
2021/09/17 05:23:14;;;;;;;4.57;1.55;;;;;;;21.61;65.56;100217.88;5099646;28;20027;-58
2021/09/17 05:25:40;;;;;;;7.20;1.90;;;;;;;21.62;65.71;100232.38;5088415;28;20032;-59
2021/09/17 05:28:06;;;;;;;5.95;1.60;;;;;;;21.61;65.41;100231.53;5084859;28;20023;-58
2021/09/17 05:30:31;;;;;;;3.95;1.95;;;;;;;21.62;65.32;100224.16;5087020;28;20058;-59
2021/09/17 05:32:57;;;;;;;4.75;1.92;;;;;;;21.61;65.58;100215.13;5093630;28;20051;-59
2021/09/17 05:35:23;;;;;;;4.45;1.60;;;;;;;21.61;65.53;100195.97;5082553;28;20020;-58
2021/09/17 05:37:48;;;;;;;7.35;2.05;;;;;;;21.59;65.20;100189.94;5089843;28;20047;-58
2021/09/17 05:40:14;;;;;;;4.82;1.63;;;;;;;21.62;65.53;100205.00;5090918;28;20034;-58
2021/09/17 05:42:40;;;;;;;6.25;1.63;;;;;;;21.61;65.14;100214.31;5079112;28;20043;-57
2021/09/17 05:45:06;;;;;;;12.27;2.17;;;;;;;21.60;65.05;100224.44;5090523;28;20020;-58
2021/09/17 05:47:32;;;;;;;7.20;2.17;;;;;;;21.61;65.34;100225.25;5093407;28;20105;-59
2021/09/17 05:49:57;;;;;;;5.75;1.58;;;;;;;21.59;65.29;100189.94;5095239;28;20019;-58
2021/09/17 05:52:23;;;;;;;5.07;1.80;;;;;;;21.62;65.26;100169.44;5092911;28;20392;-59
2021/09/17 05:54:49;;;;;;;10.00;2.15;;;;;;;21.58;64.86;100154.66;5085487;28;20379;-58
2021/09/17 05:57:15;;;;;;;7.45;1.90;;;;;;;21.62;64.99;100161.25;5093146;28;20474;-58
2021/09/17 05:59:41;;;;;;;47.10;3.30;;;;;;;21.62;65.00;100161.25;5077110;28;20111;-58
2021/09/17 06:02:08;;;;;;;4.95;2.00;;;;;;;21.62;64.53;100142.94;5080764;28;20024;-58
2021/09/17 06:04:34;;;;;;;19.67;2.78;;;;;;;21.62;65.14;100128.41;5072402;28;20530;-58
2021/09/17 06:07:00;;;;;;;19.40;3.03;;;;;;;21.59;64.87;100127.03;5090550;28;20024;-59
2021/09/17 06:09:26;;;;;;;8.70;1.95;;;;;;;21.63;65.51;100119.13;5080383;28;20111;-59
2021/09/17 06:11:52;;;;;;;24.92;2.50;;;;;;;21.59;65.38;100113.34;5083326;28;20040;-58
2021/09/17 06:14:17;;;;;;;16.42;2.40;;;;;;;21.62;65.61;100117.47;5094099;28;20513;-59
2021/09/17 06:16:43;;;;;;;13.05;2.95;;;;;;;21.62;65.10;100114.72;5091595;28;20095;-58
2021/09/17 06:19:09;;;;;;;22.63;2.53;;;;;;;21.63;65.46;100121.88;5099988;28;20030;-57
2021/09/17 06:21:34;;;;;;;8.80;2.00;;;;;;;21.61;65.26;100119.38;5096876;28;20073;-58
2021/09/17 06:24:01;;;;;;;13.82;2.85;;;;;;;21.63;65.54;100130.88;5078619;28;20085;-58
2021/09/17 06:26:31;;;;;;;6.68;2.08;;;;;;;21.62;65.46;100142.09;5084275;28;20027;-57
2021/09/17 06:29:03;;;;;;;9.38;2.20;;;;;;;21.62;65.97;100137.47;5076504;28;20026;-55
2021/09/17 06:31:29;;;;;;;12.45;2.28;;;;;;;21.64;65.36;100146.22;5081896;28;20032;-57
2021/09/17 06:33:54;;;;;;;13.23;2.60;;;;;;;21.64;65.50;100135.25;5079634;28;20092;-57
2021/09/17 06:36:20;;;;;;;10.77;2.53;;;;;;;21.63;65.41;100135.53;5075477;28;20551;-57
2021/09/17 06:38:46;;;;;;;13.02;2.25;;;;;;;21.65;65.13;100127.91;5094584;28;20440;-57
2021/09/17 06:41:11;;;;;;;6.45;2.00;;;;;;;21.63;65.36;100128.16;5083482;28;20086;-56
2021/09/17 06:43:37;;;;;;;11.45;1.90;;;;;;;21.63;65.25;100124.59;5089389;28;20056;-57
2021/09/17 06:46:03;;;;;;;7.20;2.33;;;;;;;21.63;65.37;100121.88;5093664;28;20098;-57
2021/09/17 06:48:28;;;;;;;17.20;3.75;;;;;;;21.63;65.68;100141.84;5094167;28;20019;-58
2021/09/17 06:50:54;;;;;;;8.18;2.00;;;;;;;21.62;65.82;100137.47;5075608;28;20031;-57
2021/09/17 06:53:20;;;;;;;14.00;2.35;;;;;;;21.63;65.92;100155.50;5089392;28;20082;-58
2021/09/17 06:55:45;;;;;;;9.65;2.40;;;;;;;21.62;65.84;100161.25;5078542;28;20056;-58
2021/09/17 06:58:11;;;;;;;9.52;2.65;;;;;;;21.62;65.71;100166.72;5088913;28;20020;-57
2021/09/17 07:00:38;;;;;;;6.25;2.00;;;;;;;21.62;65.68;100166.72;5079056;28;20908;-56
2021/09/17 07:03:05;;;;;;;8.13;2.17;;;;;;;21.62;65.90;100174.91;5078320;28;20020;-57
2021/09/17 07:05:31;;;;;;;6.30;2.17;;;;;;;21.62;66.05;100183.13;5081811;28;20032;-57
2021/09/17 07:08:05;;;;;;;10.48;2.72;;;;;;;21.62;66.03;100177.66;5077333;28;20517;-57
2021/09/17 07:10:32;;;;;;;6.55;2.47;;;;;;;21.61;65.85;100181.50;5089903;28;20030;-57
2021/09/17 07:12:57;;;;;;;5.63;2.53;;;;;;;21.58;66.13;100190.22;5093969;28;20759;-57
2021/09/17 07:15:24;;;;;;;7.00;2.13;;;;;;;21.62;66.21;100191.31;5083650;28;20032;-57
2021/09/17 07:17:50;;;;;;;6.90;2.10;;;;;;;21.59;65.91;100195.41;5082527;28;20070;-58
2021/09/17 07:20:16;;;;;;;7.03;2.25;;;;;;;21.61;65.76;100198.72;5091139;28;20020;-57
2021/09/17 07:22:42;;;;;;;6.25;2.15;;;;;;;21.61;66.13;100211.56;5089280;28;20103;-58
2021/09/17 07:25:08;;;;;;;11.38;3.58;;;;;;;21.61;66.08;100206.09;5077318;28;20039;-58
2021/09/17 07:27:34;;;;;;;10.15;4.32;;;;;;;21.60;65.48;100212.69;5077517;28;20394;-58
2021/09/17 07:30:01;;;;;;;13.95;4.30;;;;;;;21.61;65.88;100228.00;5090625;28;20036;-56
2021/09/17 07:32:27;;;;;;;14.50;4.10;;;;;;;21.61;65.84;100238.94;5082981;28;20028;-57
2021/09/17 07:34:53;;;;;;;18.25;5.10;;;;;;;21.61;65.21;100238.94;5082716;28;20028;-59
2021/09/17 07:37:20;;;;;;;54.60;11.70;;;;;;;21.60;65.50;100245.50;5073767;28;20024;-58
2021/09/17 07:39:45;;;;;;;27.65;8.32;;;;;;;21.62;65.47;100249.63;5078825;28;20438;-60
2021/09/17 07:42:11;;;;;;;20.05;7.75;;;;;;;21.63;65.88;100256.75;5084266;28;20748;-57
2021/09/17 07:44:37;;;;;;;25.48;7.78;;;;;;;21.64;65.54;100255.66;5090804;28;20028;-56
2021/09/17 07:47:04;;;;;;;25.85;7.90;;;;;;;21.63;65.72;100254.00;5088374;28;20435;-57
2021/09/17 07:49:29;;;;;;;22.40;7.88;;;;;;;21.64;65.69;100265.78;5086615;28;20085;-58
2021/09/17 07:51:55;;;;;;;22.98;8.00;;;;;;;21.64;65.98;100263.84;5093340;28;20474;-56
2021/09/17 07:54:21;;;;;;;24.52;8.18;;;;;;;21.65;66.06;100265.53;5087140;28;20028;-57
2021/09/17 07:56:46;;;;;;;22.80;7.10;;;;;;;21.65;66.06;100271.00;5076818;28;20081;-57
2021/09/17 07:59:12;;;;;;;26.88;8.85;;;;;;;21.66;65.85;100280.03;5076786;28;20470;-57
2021/09/17 08:01:37;;;;;;;22.70;8.68;;;;;;;21.66;66.26;100286.31;5074802;28;20027;-54
2021/09/17 08:04:03;;;;;;;26.13;9.05;;;;;;;21.67;65.91;100284.41;5080778;28;20038;-57
2021/09/17 08:06:29;;;;;;;21.02;7.93;;;;;;;21.67;66.10;100292.59;5076109;28;20103;-56
2021/09/17 08:08:54;;;;;;;24.98;8.52;;;;;;;21.66;66.07;100297.25;5082298;28;20024;-57
2021/09/17 08:11:20;;;;;;;28.70;9.02;;;;;;;21.66;65.66;100307.38;5089561;28;20629;-57
2021/09/17 08:13:46;;;;;;;25.70;9.45;;;;;;;21.67;65.65;100309.03;5098515;28;20670;-56
2021/09/17 08:16:11;;;;;;;26.88;9.25;;;;;;;21.66;65.56;100316.41;5083695;28;20076;-56
2021/09/17 08:18:37;;;;;;;24.50;8.68;;;;;;;21.66;65.99;100310.94;5091140;28;20401;-56
2021/09/17 08:21:03;;;;;;;26.17;8.80;;;;;;;21.67;65.90;100307.13;5081903;28;20033;-57
2021/09/17 08:23:28;;;;;;;25.85;9.10;;;;;;;21.67;65.97;100318.06;5095441;27;20027;-56
2021/09/17 08:25:55;;;;;;;35.28;9.60;;;;;;;21.67;65.65;100311.75;5077682;28;20023;-57
2021/09/17 08:28:22;;;;;;;23.00;8.70;;;;;;;21.67;65.64;100311.75;5078620;28;20051;-58
2021/09/17 08:30:49;;;;;;;26.63;9.25;;;;;;;21.66;65.70;100310.13;5074347;28;20085;-58
2021/09/17 08:33:34;;;;;;;25.23;9.23;;;;;;;21.66;65.73;100321.06;5077400;28;20533;-57
2021/09/17 08:36:20;;;;;;;28.35;9.48;;;;;;;21.67;65.44;100328.16;5095275;27;20036;-58
2021/09/17 08:39:06;;;;;;;30.80;9.68;;;;;;;21.68;65.71;100324.38;5077297;28;20048;-57
2021/09/17 08:41:33;;;;;;;24.42;9.40;;;;;;;21.66;65.66;100321.88;5079044;28;20054;-58
2021/09/17 08:43:59;;;;;;;26.65;9.85;;;;;;;21.69;65.53;100336.94;5091969;28;20030;-57
2021/09/17 08:46:25;;;;;;;24.85;9.93;;;;;;;21.68;65.57;100335.31;5082810;28;20038;-58
2021/09/17 08:48:51;;;;;;;23.27;9.43;;;;;;;21.67;65.86;100336.38;5077911;28;20047;-57
2021/09/17 08:51:20;;;;;;;28.98;10.30;;;;;;;21.68;65.77;100332.56;5078240;28;20031;-57
2021/09/17 08:53:46;;;;;;;31.25;10.27;;;;;;;21.68;65.56;100341.59;5097117;28;20051;-57
2021/09/17 08:56:17;;;;;;;28.80;9.95;;;;;;;21.67;65.83;100347.31;5091816;28;20020;-58
2021/09/17 08:58:43;;;;;;;30.05;9.88;;;;;;;21.68;65.71;100351.72;5103058;28;20038;-58
2021/09/17 09:01:30;;;;;;;27.45;9.65;;;;;;;21.67;65.64;100361.00;5086199;28;20072;-58
2021/09/17 09:03:59;;;;;;;30.23;9.98;;;;;;;21.67;65.77;100367.31;5100300;28;20385;-58
2021/09/17 09:06:26;;;;;;;25.70;10.85;;;;;;;21.66;65.86;100373.03;5091001;28;20028;-58
2021/09/17 09:08:52;;;;;;;28.10;10.30;;;;;;;21.67;65.88;100383.75;5079495;28;20023;-56
2021/09/17 09:11:20;;;;;;;27.17;10.45;;;;;;;21.66;65.63;100381.25;5086679;28;20024;-58
2021/09/17 09:14:03;;;;;;;25.40;10.32;;;;;;;21.68;65.72;100392.78;5090110;28;20032;-56
2021/09/17 09:16:29;;;;;;;28.23;10.57;;;;;;;21.68;65.99;100400.97;5083172;28;20024;-61
2021/09/17 09:18:55;;;;;;;23.77;9.80;;;;;;;21.65;65.96;100398.78;5089932;28;20821;-56
2021/09/17 09:21:38;;;;;;;25.52;10.63;;;;;;;21.68;65.83;100409.19;5098261;27;20102;-56
2021/09/17 09:24:08;;;;;;;26.75;10.10;;;;;;;21.68;65.82;100403.72;5082235;28;20028;-57
2021/09/17 09:26:34;;;;;;;27.00;10.60;;;;;;;21.68;65.69;100411.94;5082288;28;20383;-57
2021/09/17 09:29:00;;;;;;;28.55;9.73;;;;;;;21.68;65.91;100407.28;5084710;27;20098;-58
2021/09/17 09:31:26;;;;;;;26.17;9.98;;;;;;;21.68;65.63;100414.66;5091759;28;20028;-57
2021/09/17 09:33:53;;;;;;;28.65;10.23;;;;;;;21.69;65.73;100430.81;5112318;27;20071;-59
2021/09/17 09:36:20;;;;;;;26.95;10.27;;;;;;;21.69;66.05;100427.25;5093696;28;20020;-59
2021/09/17 09:38:47;;;;;;;29.40;9.95;;;;;;;21.68;65.88;100426.44;5101788;28;20031;-58
2021/09/17 09:41:14;;;;;;;26.13;8.82;;;;;;;21.68;65.60;100431.91;5084761;28;20390;-56
2021/09/17 09:43:48;;;;;;;23.45;9.23;;;;;;;21.67;65.72;100433.00;5102213;28;20084;-57
2021/09/17 09:46:33;;;;;;;28.20;9.77;;;;;;;21.67;65.92;100443.94;5095531;28;20023;-57
2021/09/17 09:48:59;;;;;;;30.60;10.13;;;;;;;21.67;65.94;100434.88;5092533;28;20051;-60
2021/09/17 09:51:26;;;;;;;26.90;9.75;;;;;;;21.67;65.76;100430.25;5085600;28;20104;-57
2021/09/17 09:53:52;;;;;;;22.42;9.13;;;;;;;21.68;66.00;100423.69;5098834;28;20034;-58
2021/09/17 09:56:21;;;;;;;25.38;9.45;;;;;;;21.68;65.89;100417.41;5099785;28;20359;-56
2021/09/17 09:58:48;;;;;;;28.05;9.80;;;;;;;21.69;66.05;100413.56;5095084;28;20094;-56
2021/09/17 10:01:17;;;;;;;27.23;9.63;;;;;;;21.69;65.58;100416.31;5088919;28;20038;-56
2021/09/17 10:03:43;;;;;;;28.15;9.25;;;;;;;21.69;65.83;100419.03;5082581;28;20027;-56
2021/09/17 10:06:09;;;;;;;25.50;9.15;;;;;;;21.70;65.75;100409.75;5098778;28;20012;-57
2021/09/17 10:08:35;;;;;;;21.52;8.77;;;;;;;21.71;65.61;100403.19;5082105;28;20046;-56
2021/09/17 10:11:01;;;;;;;24.23;9.07;;;;;;;21.71;65.12;100392.25;5095976;28;20023;-58
2021/09/17 10:13:27;;;;;;;27.85;11.18;;;;;;;21.73;65.21;100387.34;5098385;28;20042;-57
2021/09/17 10:15:53;;;;;;;24.38;9.73;;;;;;;21.74;64.95;100378.06;5098018;28;20024;-58
2021/09/17 10:18:19;;;;;;;23.30;9.13;;;;;;;21.77;64.88;100383.00;5084906;28;20022;-57
2021/09/17 10:20:45;;;;;;;25.60;9.85;;;;;;;21.79;64.57;100383.56;5089355;28;20497;-58
2021/09/17 10:23:23;;;;;;;25.75;9.00;;;;;;;21.79;64.41;100383.56;5087386;28;20038;-60
2021/09/17 10:26:05;;;;;;;23.65;9.57;;;;;;;21.81;64.36;100377.84;5085375;28;20032;-57
2021/09/17 10:28:32;;;;;;;23.20;8.40;;;;;;;21.82;64.32;100372.09;5089168;28;20031;-58
2021/09/17 10:31:12;;;;;;;26.52;9.57;;;;;;;21.83;64.47;100376.50;5095496;28;20028;-59
2021/09/17 10:33:38;;;;;;;24.95;8.57;;;;;;;21.84;64.20;100386.34;5089170;28;20040;-56
2021/09/17 10:36:04;;;;;;;24.45;8.98;;;;;;;21.84;64.31;100389.09;5089193;28;20032;-58
2021/09/17 10:38:31;;;;;;;25.30;9.98;;;;;;;21.86;64.27;100389.66;5090245;28;20031;-60
2021/09/17 10:41:01;;;;;;;20.52;8.77;;;;;;;21.88;64.18;100394.88;5097631;28;20020;-56
2021/09/17 10:43:36;;;;;;;20.45;8.13;;;;;;;21.91;64.08;100397.06;5083712;28;20035;-56
2021/09/17 10:46:06;;;;;;;19.35;8.23;;;;;;;21.94;64.01;100402.06;5079451;28;20028;-58
2021/09/17 10:48:41;;;;;;;19.83;7.00;;;;;;;21.99;63.64;100406.72;5090355;28;20074;-56
2021/09/17 10:51:07;;;;;;;21.38;7.85;;;;;;;22.01;63.63;100416.34;5084533;28;20024;-56
2021/09/17 10:53:39;;;;;;;21.52;8.07;;;;;;;22.07;63.26;100418.06;5094946;28;20158;-57
2021/09/17 10:56:12;;;;;;;22.25;7.95;;;;;;;22.13;62.75;100419.75;5089816;28;20027;-57
2021/09/17 10:58:45;;;;;;;20.80;6.75;;;;;;;22.16;62.72;100408.25;5100306;28;20110;-56
2021/09/17 11:01:13;;;;;;;16.92;6.85;;;;;;;22.25;62.87;100413.28;5091661;28;20086;-58
2021/09/17 11:03:38;;;;;;;18.67;6.90;;;;;;;22.29;62.61;100417.97;5086325;28;20040;-56
2021/09/17 11:06:37;;;;;;;17.77;7.03;;;;;;;22.31;62.92;100421.28;5094644;28;20024;-56
2021/09/17 11:09:04;;;;;;;16.63;7.47;;;;;;;22.32;62.67;100417.44;5082429;28;20031;-58
2021/09/17 11:11:40;;;;;;;15.88;7.05;;;;;;;22.36;62.76;100418.59;5095010;28;20024;-57
2021/09/17 11:14:08;;;;;;;19.80;7.18;;;;;;;22.38;62.74;100426.53;5076316;28;20072;-56
2021/09/17 11:16:34;;;;;;;16.30;6.78;;;;;;;22.39;62.75;100431.75;5092129;28;20085;-57
2021/09/17 11:19:08;;;;;;;18.10;6.72;;;;;;;22.41;62.61;100441.63;5095257;28;20466;-57
2021/09/17 11:21:36;;;;;;;13.82;4.82;;;;;;;22.37;62.47;100442.16;5084326;28;20451;-57